Tariq Ibn Ziyad — 7TXO — position and weather

sailwx.info

Track history (hours):
 
Tides and Currents Weather Stations Pressure Air Temp Water Temp Dewpoint Dewpoint Depression Visibility Wind Speed Wind Dir Waves Ship Positions

Tariq Ibn Ziyad

Last reported at 2017-Oct-18 13:15 UTC. Time now 2017-Oct-19 07:09 UTC.
Position N 42°41' E 005°01'.

Length 153 m; draft 6 m.

Type: Passenger vessel. MMSI: 605246160.

Date/timePositionNaut miles runAvg speedWind from/ knotsBaromVisibWave heightAir tempDewpointWater temp
2017-Oct-18 13:15N 42°41' E 005°01'520.0
2017-Oct-18 13:00N 42°46' E 005°03'1020.1
2017-Oct-18 12:30N 42°55' E 005°07'1020.1
2017-Oct-18 12:00N 43°04' E 005°12'1120.1
2017-Oct-18 11:29N 43°14' E 005°18'5 0.9
2017-Oct-18 06:14N 43°18' E 005°22'0 0.0
2017-Oct-18 05:50N 43°18' E 005°22'0 0.0
2017-Oct-18 05:26N 43°18' E 005°22'0 0.0
2017-Oct-18 04:56N 43°18' E 005°22'0 0.0
2017-Oct-18 04:26N 43°18' E 005°22'0 0.0
2017-Oct-18 02:38N 43°18' E 005°22'0 0.0
2017-Oct-18 02:20N 43°18' E 005°22'0 0.0
2017-Oct-18 01:20N 43°18' E 005°22'0 0.0
2017-Oct-18 00:56N 43°18' E 005°22'0 0.0
2017-Oct-17 22:26N 43°18' E 005°22'0 0.0
2017-Oct-17 17:20N 43°18' E 005°22'0 0.0
2017-Oct-17 16:44N 43°18' E 005°22'0 0.0
2017-Oct-17 16:20N 43°18' E 005°22'0 0.0
2017-Oct-17 11:32N 43°18' E 005°22'0 0.0
2017-Oct-17 11:14N 43°18' E 005°22'0 0.0
2017-Oct-17 10:59N 43°18' E 005°22'2 4.1
2017-Oct-17 10:29N 43°17' E 005°20'715.0
2017-Oct-17 10:01N 43°10' E 005°15'1019.9
2017-Oct-17 09:30N 43°01' E 005°09'1019.7
2017-Oct-17 09:00N 42°53' E 005°02'1019.6
2017-Oct-17 08:30N 42°45' E 004°55'1119.6
2017-Oct-17 07:58N 42°35' E 004°48'918.9
2017-Oct-17 07:29N 42°26' E 004°47'349 7.5
2017-Oct-15 08:50N 36°47' E 003°04'2 5.8
2017-Oct-15 08:30N 36°48' E 003°06'30320.2
2017-Oct-14 17:29N 41°39' E 004°53'1619.9
2017-Oct-14 16:41N 41°55' E 004°57'1820.2
2017-Oct-14 15:47N 42°13' E 005°02'1020.2
2017-Oct-14 15:19N 42°22' E 005°04'2120.4
2017-Oct-14 14:16N 42°43' E 005°09'920.5
2017-Oct-14 13:49N 42°52' E 005°12'920.3
2017-Oct-14 13:22N 43°01' E 005°14'819.9
2017-Oct-14 12:57N 43°09' E 005°17'818.0
2017-Oct-14 12:30N 43°17' E 005°20'2 3.5
2017-Oct-14 12:00N 43°18' E 005°22'0 0.0
2017-Oct-14 11:15N 43°18' E 005°22'0 0.0
2017-Oct-14 10:57N 43°18' E 005°22'0 0.0
2017-Oct-14 10:30N 43°18' E 005°22'0 0.0
2017-Oct-14 09:51N 43°18' E 005°22'0 0.0
2017-Oct-14 09:21N 43°18' E 005°22'0 0.0
2017-Oct-14 08:57N 43°18' E 005°22'0 0.0
2017-Oct-14 08:30N 43°18' E 005°22'0 0.0
2017-Oct-14 07:51N 43°18' E 005°22'0 0.0
2017-Oct-14 07:30N 43°18' E 005°22'0 0.0
2017-Oct-14 07:00N 43°18' E 005°22'0 0.0
2017-Oct-14 06:30N 43°18' E 005°22'0 0.0
2017-Oct-14 05:57N 43°18' E 005°22'0 0.0
2017-Oct-14 05:27N 43°18' E 005°22'0 0.0
2017-Oct-14 04:57N 43°18' E 005°22'0 0.0
2017-Oct-14 04:27N 43°18' E 005°22'0 0.0
2017-Oct-14 03:57N 43°18' E 005°22'0 0.0
2017-Oct-14 03:24N 43°18' E 005°22'0 0.0
2017-Oct-14 02:57N 43°18' E 005°22'0 0.0
2017-Oct-14 02:27N 43°18' E 005°22'0 0.0
2017-Oct-14 01:57N 43°18' E 005°22'0 0.0
2017-Oct-14 01:30N 43°18' E 005°22'0 0.0
2017-Oct-14 01:00N 43°18' E 005°22'0 0.0
2017-Oct-14 00:30N 43°18' E 005°22'0 0.0
2017-Oct-14 00:00N 43°18' E 005°22'0 0.0
2017-Oct-13 23:30N 43°18' E 005°22'0 0.0
2017-Oct-13 22:57N 43°18' E 005°22'0 0.0
2017-Oct-13 22:30N 43°18' E 005°22'0 0.0
2017-Oct-13 21:54N 43°18' E 005°22'0 0.0
2017-Oct-13 21:30N 43°18' E 005°22'0 0.0
2017-Oct-13 21:00N 43°18' E 005°22'0 0.0
2017-Oct-13 20:27N 43°18' E 005°22'0 0.0
2017-Oct-13 19:51N 43°18' E 005°22'0 0.0
2017-Oct-13 19:27N 43°18' E 005°22'0 0.0
2017-Oct-13 19:00N 43°18' E 005°22'0 0.0
2017-Oct-13 18:30N 43°18' E 005°22'0 0.0
2017-Oct-13 17:57N 43°18' E 005°22'0 0.0
2017-Oct-13 17:21N 43°18' E 005°22'0 0.0
2017-Oct-13 16:57N 43°18' E 005°22'0 0.0
2017-Oct-13 16:09N 43°18' E 005°22'0 0.0
2017-Oct-13 15:57N 43°18' E 005°22'0 0.0
2017-Oct-13 15:27N 43°18' E 005°22'0 0.0
2017-Oct-13 14:33N 43°18' E 005°22'0 0.1
2017-Oct-13 14:27N 43°18' E 005°22'0 0.0
2017-Oct-13 13:57N 43°18' E 005°22'0 0.0
2017-Oct-13 12:57N 43°18' E 005°22'0 0.0
2017-Oct-13 12:21N 43°18' E 005°22'0 0.0
2017-Oct-13 11:57N 43°18' E 005°22'0 0.0
2017-Oct-13 11:27N 43°18' E 005°22'0 0.2
2017-Oct-13 11:00N 43°18' E 005°22'510.4
2017-Oct-13 10:29N 43°14' E 005°18'1020.4
2017-Oct-13 10:00N 43°04' E 005°15'1020.4
2017-Oct-13 09:30N 42°54' E 005°13'1620.2
2017-Oct-13 08:43N 42°38' E 005°09'420.4
2017-Oct-13 08:31N 42°34' E 005°08'1320.4
2017-Oct-13 07:51N 42°21' E 005°05'820.4
2017-Oct-13 07:28N 42°13' E 005°03'1120.0
2017-Oct-13 06:56N 42°03' E 005°00'920.5
2017-Oct-13 06:29N 41°53' E 004°58'1420.6
2017-Oct-13 05:47N 41°39' E 004°54'620.6
2017-Oct-13 05:31N 41°34' E 004°52'1120.6
2017-Oct-13 05:00N 41°24' E 004°49'13620.3
2017-Oct-12 22:19N 39°12' E 004°09'620.3
2017-Oct-12 22:00N 39°06' E 004°07'2720.4
2017-Oct-12 20:41N 38°40' E 003°55'1120.2
2017-Oct-12 20:08N 38°30' E 003°51'7320.2
2017-Oct-12 16:31N 37°21' E 003°21'021.4
2017-Oct-12 16:30N 37°20' E 003°21'1420.4
2017-Oct-12 15:49N 37°07' E 003°16'1520.2
2017-Oct-12 15:05N 36°54' E 003°08'520.2
2017-Oct-12 14:50N 36°49' E 003°05'1 0.1
2017-Oct-12 07:30N 36°48' E 003°06'40311.5
2017-Oct-10 20:27N 43°18' E 005°22'0 0.0
2017-Oct-10 19:12N 43°18' E 005°22'0 0.0
2017-Oct-10 18:42N 43°18' E 005°22'0 0.0
2017-Oct-10 18:21N 43°18' E 005°22'0 0.0
2017-Oct-10 18:00N 43°18' E 005°22'0 0.0
2017-Oct-10 17:30N 43°18' E 005°22'0 0.0
2017-Oct-10 16:54N 43°18' E 005°22'0 0.0
2017-Oct-10 16:30N 43°18' E 005°22'0 0.0
2017-Oct-10 16:00N 43°18' E 005°22'0 0.0
2017-Oct-10 15:30N 43°18' E 005°22'1 0.1
2017-Oct-10 09:31N 43°18' E 005°21'010.1
2017-Oct-10 09:28N 43°18' E 005°20'714.7
2017-Oct-10 09:00N 43°11' E 005°16'1019.9
2017-Oct-10 08:30N 43°02' E 005°12'1019.5
2017-Oct-10 08:00N 42°53' E 005°07'1019.4
2017-Oct-10 07:28N 42°43' E 005°03'  
Track history (hours):
 
Tides and Currents Weather Stations Pressure Air Temp Water Temp Dewpoint Dewpoint Depression Visibility Wind Speed Wind Dir Waves Ship Positions

Tariq Ibn Ziyad

Last reported at 2017-Oct-18 13:15 UTC. Time now 2017-Oct-19 07:09 UTC.
Position N 42°41' E 005°01'.

Length 153 m; draft 6 m.

Type: Passenger vessel. MMSI: 605246160.

Date/timePositionNaut miles runAvg speedWind from/ knotsBaromVisibWave heightAir tempDewpointWater temp
2017-Oct-18 13:15N 42°41' E 005°01'520.0
2017-Oct-18 13:00N 42°46' E 005°03'1020.1
2017-Oct-18 12:30N 42°55' E 005°07'1020.1
2017-Oct-18 12:00N 43°04' E 005°12'1120.1
2017-Oct-18 11:29N 43°14' E 005°18'5 0.9
2017-Oct-18 06:14N 43°18' E 005°22'0 0.0
2017-Oct-18 05:50N 43°18' E 005°22'0 0.0
2017-Oct-18 05:26N 43°18' E 005°22'0 0.0
2017-Oct-18 04:56N 43°18' E 005°22'0 0.0
2017-Oct-18 04:26N 43°18' E 005°22'0 0.0
2017-Oct-18 02:38N 43°18' E 005°22'0 0.0
2017-Oct-18 02:20N 43°18' E 005°22'0 0.0
2017-Oct-18 01:20N 43°18' E 005°22'0 0.0
2017-Oct-18 00:56N 43°18' E 005°22'0 0.0
2017-Oct-17 22:26N 43°18' E 005°22'0 0.0
2017-Oct-17 17:20N 43°18' E 005°22'0 0.0
2017-Oct-17 16:44N 43°18' E 005°22'0 0.0
2017-Oct-17 16:20N 43°18' E 005°22'0 0.0
2017-Oct-17 11:32N 43°18' E 005°22'0 0.0
2017-Oct-17 11:14N 43°18' E 005°22'0 0.0
2017-Oct-17 10:59N 43°18' E 005°22'2 4.1
2017-Oct-17 10:29N 43°17' E 005°20'715.0
2017-Oct-17 10:01N 43°10' E 005°15'1019.9
2017-Oct-17 09:30N 43°01' E 005°09'1019.7
2017-Oct-17 09:00N 42°53' E 005°02'1019.6
2017-Oct-17 08:30N 42°45' E 004°55'1119.6
2017-Oct-17 07:58N 42°35' E 004°48'918.9
2017-Oct-17 07:29N 42°26' E 004°47'349 7.5
2017-Oct-15 08:50N 36°47' E 003°04'2 5.8
2017-Oct-15 08:30N 36°48' E 003°06'30320.2
2017-Oct-14 17:29N 41°39' E 004°53'1619.9
2017-Oct-14 16:41N 41°55' E 004°57'1820.2
2017-Oct-14 15:47N 42°13' E 005°02'1020.2
2017-Oct-14 15:19N 42°22' E 005°04'2120.4
2017-Oct-14 14:16N 42°43' E 005°09'920.5
2017-Oct-14 13:49N 42°52' E 005°12'920.3
2017-Oct-14 13:22N 43°01' E 005°14'819.9
2017-Oct-14 12:57N 43°09' E 005°17'818.0
2017-Oct-14 12:30N 43°17' E 005°20'2 3.5
2017-Oct-14 12:00N 43°18' E 005°22'0 0.0
2017-Oct-14 11:15N 43°18' E 005°22'0 0.0
2017-Oct-14 10:57N 43°18' E 005°22'0 0.0
2017-Oct-14 10:30N 43°18' E 005°22'0 0.0
2017-Oct-14 09:51N 43°18' E 005°22'0 0.0
2017-Oct-14 09:21N 43°18' E 005°22'0 0.0
2017-Oct-14 08:57N 43°18' E 005°22'0 0.0
2017-Oct-14 08:30N 43°18' E 005°22'0 0.0
2017-Oct-14 07:51N 43°18' E 005°22'0 0.0
2017-Oct-14 07:30N 43°18' E 005°22'0 0.0
2017-Oct-14 07:00N 43°18' E 005°22'0 0.0
2017-Oct-14 06:30N 43°18' E 005°22'0 0.0
2017-Oct-14 05:57N 43°18' E 005°22'0 0.0
2017-Oct-14 05:27N 43°18' E 005°22'0 0.0
2017-Oct-14 04:57N 43°18' E 005°22'0 0.0
2017-Oct-14 04:27N 43°18' E 005°22'0 0.0
2017-Oct-14 03:57N 43°18' E 005°22'0 0.0
2017-Oct-14 03:24N 43°18' E 005°22'0 0.0
2017-Oct-14 02:57N 43°18' E 005°22'0 0.0
2017-Oct-14 02:27N 43°18' E 005°22'0 0.0
2017-Oct-14 01:57N 43°18' E 005°22'0 0.0
2017-Oct-14 01:30N 43°18' E 005°22'0 0.0
2017-Oct-14 01:00N 43°18' E 005°22'0 0.0
2017-Oct-14 00:30N 43°18' E 005°22'0 0.0
2017-Oct-14 00:00N 43°18' E 005°22'0 0.0
2017-Oct-13 23:30N 43°18' E 005°22'0 0.0
2017-Oct-13 22:57N 43°18' E 005°22'0 0.0
2017-Oct-13 22:30N 43°18' E 005°22'0 0.0
2017-Oct-13 21:54N 43°18' E 005°22'0 0.0
2017-Oct-13 21:30N 43°18' E 005°22'0 0.0
2017-Oct-13 21:00N 43°18' E 005°22'0 0.0
2017-Oct-13 20:27N 43°18' E 005°22'0 0.0
2017-Oct-13 19:51N 43°18' E 005°22'0 0.0
2017-Oct-13 19:27N 43°18' E 005°22'0 0.0
2017-Oct-13 19:00N 43°18' E 005°22'0 0.0
2017-Oct-13 18:30N 43°18' E 005°22'0 0.0
2017-Oct-13 17:57N 43°18' E 005°22'0 0.0
2017-Oct-13 17:21N 43°18' E 005°22'0 0.0
2017-Oct-13 16:57N 43°18' E 005°22'0 0.0
2017-Oct-13 16:09N 43°18' E 005°22'0 0.0
2017-Oct-13 15:57N 43°18' E 005°22'0 0.0
2017-Oct-13 15:27N 43°18' E 005°22'0 0.0
2017-Oct-13 14:33N 43°18' E 005°22'0 0.1
2017-Oct-13 14:27N 43°18' E 005°22'0 0.0
2017-Oct-13 13:57N 43°18' E 005°22'0 0.0
2017-Oct-13 12:57N 43°18' E 005°22'0 0.0
2017-Oct-13 12:21N 43°18' E 005°22'0 0.0
2017-Oct-13 11:57N 43°18' E 005°22'0 0.0
2017-Oct-13 11:27N 43°18' E 005°22'0 0.2
2017-Oct-13 11:00N 43°18' E 005°22'510.4
2017-Oct-13 10:29N 43°14' E 005°18'1020.4
2017-Oct-13 10:00N 43°04' E 005°15'1020.4
2017-Oct-13 09:30N 42°54' E 005°13'1620.2
2017-Oct-13 08:43N 42°38' E 005°09'420.4
2017-Oct-13 08:31N 42°34' E 005°08'1320.4
2017-Oct-13 07:51N 42°21' E 005°05'820.4
2017-Oct-13 07:28N 42°13' E 005°03'1120.0
2017-Oct-13 06:56N 42°03' E 005°00'920.5
2017-Oct-13 06:29N 41°53' E 004°58'1420.6
2017-Oct-13 05:47N 41°39' E 004°54'620.6
2017-Oct-13 05:31N 41°34' E 004°52'1120.6
2017-Oct-13 05:00N 41°24' E 004°49'13620.3
2017-Oct-12 22:19N 39°12' E 004°09'620.3
2017-Oct-12 22:00N 39°06' E 004°07'2720.4
2017-Oct-12 20:41N 38°40' E 003°55'1120.2
2017-Oct-12 20:08N 38°30' E 003°51'7320.2
2017-Oct-12 16:31N 37°21' E 003°21'021.4
2017-Oct-12 16:30N 37°20' E 003°21'1420.4
2017-Oct-12 15:49N 37°07' E 003°16'1520.2
2017-Oct-12 15:05N 36°54' E 003°08'520.2
2017-Oct-12 14:50N 36°49' E 003°05'1 0.1
2017-Oct-12 07:30N 36°48' E 003°06'40311.5
2017-Oct-10 20:27N 43°18' E 005°22'0 0.0
2017-Oct-10 19:12N 43°18' E 005°22'0 0.0
2017-Oct-10 18:42N 43°18' E 005°22'0 0.0
2017-Oct-10 18:21N 43°18' E 005°22'0 0.0
2017-Oct-10 18:00N 43°18' E 005°22'0 0.0
2017-Oct-10 17:30N 43°18' E 005°22'0 0.0
2017-Oct-10 16:54N 43°18' E 005°22'0 0.0
2017-Oct-10 16:30N 43°18' E 005°22'0 0.0
2017-Oct-10 16:00N 43°18' E 005°22'0 0.0
2017-Oct-10 15:30N 43°18' E 005°22'1 0.1
2017-Oct-10 09:31N 43°18' E 005°21'010.1
2017-Oct-10 09:28N 43°18' E 005°20'714.7
2017-Oct-10 09:00N 43°11' E 005°16'1019.9
2017-Oct-10 08:30N 43°02' E 005°12'1019.5
2017-Oct-10 08:00N 42°53' E 005°07'1019.4
2017-Oct-10 07:28N 42°43' E 005°03'  

Dump ship's entire track history